createdAt,value
2023-01-08T00:01:18.419Z,3.61
2023-01-08T00:03:50.425Z,3.66
2023-01-08T00:06:21.935Z,3.66
2023-01-08T00:08:49.367Z,3.68
2023-01-08T00:11:17.242Z,3.65
2023-01-08T00:13:44.644Z,3.64
2023-01-08T00:16:18.007Z,3.62
2023-01-08T00:18:47.414Z,3.64
2023-01-08T00:21:14.984Z,3.63
2023-01-08T00:23:42.517Z,3.56
2023-01-08T00:26:10.773Z,3.60
2023-01-08T00:28:39.488Z,3.58
2023-01-08T00:31:12.727Z,3.53
2023-01-08T00:33:41.089Z,3.50
2023-01-08T00:36:15.949Z,3.49
2023-01-08T00:38:45.704Z,3.48
2023-01-08T00:41:15.190Z,3.44
2023-01-08T00:43:42.774Z,3.43
2023-01-08T00:46:10.180Z,3.39
2023-01-08T00:48:38.905Z,3.35
2023-01-08T00:51:08.775Z,3.35
2023-01-08T00:53:38.081Z,3.34
2023-01-08T00:56:09.727Z,3.34
2023-01-08T00:58:37.129Z,3.30
2023-01-08T01:01:14.791Z,3.25
2023-01-08T01:03:43.340Z,3.21
2023-01-08T01:06:12.529Z,3.25
2023-01-08T01:08:40.702Z,3.24
2023-01-08T01:11:21.051Z,3.20
2023-01-08T01:13:49.049Z,3.19
2023-01-08T01:16:16.187Z,3.17
2023-01-08T01:18:44.392Z,3.15
2023-01-08T01:21:30.018Z,3.12
2023-01-08T01:24:01.427Z,3.09
2023-01-08T01:26:28.964Z,3.08
2023-01-08T01:28:58.328Z,3.08
2023-01-08T01:31:28.841Z,3.05
2023-01-08T01:33:56.891Z,3.03
2023-01-08T01:36:26.064Z,3.01
2023-01-08T01:38:56.707Z,3.00
2023-01-08T01:41:38.623Z,2.97
2023-01-08T01:44:44.623Z,2.95
2023-01-08T01:47:35.690Z,2.93
2023-01-08T01:50:13.443Z,2.88
2023-01-08T01:52:52.270Z,2.86
2023-01-08T01:55:20.426Z,2.85
2023-01-08T01:58:03.411Z,2.85
2023-01-08T02:00:34.033Z,2.84
2023-01-08T02:03:02.321Z,2.84
2023-01-08T02:05:58.170Z,2.81
2023-01-08T02:09:13.111Z,2.76
2023-01-08T02:12:17.762Z,2.72
2023-01-08T02:15:02.786Z,2.72
2023-01-08T02:17:44.332Z,2.69
2023-01-08T02:20:29.891Z,2.67
2023-01-08T02:23:10.712Z,2.69
2023-01-08T02:26:15.661Z,2.64
2023-01-08T02:29:00.859Z,2.60
2023-01-08T02:31:31.740Z,2.60
2023-01-08T02:33:59.852Z,2.60
2023-01-08T02:36:43.539Z,2.57
2023-01-08T02:39:54.348Z,2.51
2023-01-08T02:43:09.722Z,2.53
2023-01-08T02:45:54.912Z,2.52
2023-01-08T02:48:42.709Z,2.52
2023-01-08T02:51:35.180Z,2.48
2023-01-08T02:54:09.188Z,2.48
2023-01-08T02:56:44.738Z,2.47
2023-01-08T02:59:15.629Z,2.44
2023-01-08T03:01:45.562Z,2.44
2023-01-08T03:04:18.923Z,2.39
2023-01-08T03:06:47.113Z,2.37
2023-01-08T03:09:16.190Z,2.34
2023-01-08T03:12:36.459Z,2.35
2023-01-08T03:15:11.711Z,2.32
2023-01-08T03:17:48.419Z,2.34
2023-01-08T03:20:21.617Z,2.33
2023-01-08T03:22:54.238Z,2.32
2023-01-08T03:25:26.735Z,2.30
2023-01-08T03:28:02.889Z,2.28
2023-01-08T03:30:31.352Z,2.29
2023-01-08T03:33:01.806Z,2.28
2023-01-08T03:35:32.219Z,2.23
2023-01-08T03:38:22.363Z,2.22
2023-01-08T03:40:57.530Z,2.20
2023-01-08T03:43:25.549Z,2.15
2023-01-08T03:46:00.096Z,2.14
2023-01-08T03:48:32.259Z,2.09
2023-01-08T03:51:00.051Z,2.09
2023-01-08T03:53:28.401Z,2.04
2023-01-08T03:55:57.586Z,2.03
2023-01-08T03:58:24.832Z,2.03
2023-01-08T04:00:52.604Z,2.01
2023-01-08T04:03:19.979Z,1.97
2023-01-08T04:05:47.199Z,1.94
2023-01-08T04:08:14.331Z,1.96
2023-01-08T04:10:41.444Z,1.92
2023-01-08T04:13:08.662Z,1.90
2023-01-08T04:15:35.625Z,1.92
2023-01-08T04:18:02.836Z,1.94
2023-01-08T04:20:29.776Z,1.91
2023-01-08T04:22:57.021Z,1.92
2023-01-08T04:25:24.044Z,1.90
2023-01-08T04:27:51.324Z,1.88
2023-01-08T04:30:18.314Z,1.84
2023-01-08T04:32:45.663Z,1.78
2023-01-08T04:35:13.258Z,1.76
2023-01-08T04:37:40.476Z,1.76
2023-01-08T04:40:08.250Z,1.76
2023-01-08T04:42:35.510Z,1.77
2023-01-08T04:45:02.503Z,1.75
2023-01-08T04:47:29.721Z,1.75
2023-01-08T04:49:56.881Z,1.70
2023-01-08T04:52:24.075Z,1.70
2023-01-08T04:54:51.187Z,1.65
2023-01-08T04:57:18.523Z,1.64
2023-01-08T04:59:45.440Z,1.63
2023-01-08T05:02:12.935Z,1.63
2023-01-08T05:04:40.132Z,1.59
2023-01-08T05:07:07.892Z,1.62
2023-01-08T05:09:34.880Z,1.60
2023-01-08T05:12:02.454Z,1.58
2023-01-08T05:14:29.440Z,1.53
2023-01-08T05:16:56.733Z,1.51
2023-01-08T05:19:23.749Z,1.49
2023-01-08T05:21:50.942Z,1.48
2023-01-08T05:24:17.895Z,1.46
2023-01-08T05:26:45.061Z,1.46
2023-01-08T05:29:12.255Z,1.46
2023-01-08T05:31:39.483Z,1.44
2023-01-08T05:34:06.591Z,1.40
2023-01-08T05:36:33.837Z,1.37
2023-01-08T05:39:00.892Z,1.36
2023-01-08T05:41:28.467Z,1.33
2023-01-08T05:43:55.745Z,1.28
2023-01-08T05:46:23.104Z,1.22
2023-01-08T05:48:50.145Z,1.22
2023-01-08T05:51:17.340Z,1.21
2023-01-08T05:53:45.131Z,1.20
2023-01-08T05:56:12.513Z,1.19
2023-01-08T05:58:39.568Z,1.18
2023-01-08T06:01:11.937Z,1.16
2023-01-08T06:03:40.077Z,1.15
2023-01-08T06:06:08.658Z,1.19
2023-01-08T06:08:36.530Z,1.18
2023-01-08T06:11:08.038Z,1.15
2023-01-08T06:13:37.750Z,1.14
2023-01-08T06:16:05.555Z,1.15
2023-01-08T06:18:32.895Z,1.15
2023-01-08T06:21:01.310Z,1.12
2023-01-08T06:23:28.516Z,1.11
2023-01-08T06:25:58.528Z,1.13
2023-01-08T06:28:27.224Z,1.11
2023-01-08T06:30:57.181Z,1.11
2023-01-08T06:33:24.338Z,1.09
2023-01-08T06:35:51.622Z,1.08
2023-01-08T06:38:19.293Z,1.07
2023-01-08T06:40:47.784Z,1.11
2023-01-08T06:43:15.434Z,1.10
2023-01-08T06:45:42.760Z,1.06
2023-01-08T06:48:09.777Z,1.04
2023-01-08T06:50:37.031Z,1.05
2023-01-08T06:53:04.026Z,1.03
2023-01-08T06:55:31.262Z,1.02
2023-01-08T06:57:59.258Z,1.03
2023-01-08T07:00:27.453Z,1.03
2023-01-08T07:02:55.509Z,1.00
2023-01-08T07:05:24.013Z,1.01
2023-01-08T07:07:51.322Z,1.03
2023-01-08T07:10:20.057Z,1.04
2023-01-08T07:12:48.652Z,1.04
2023-01-08T07:15:16.585Z,1.02
2023-01-08T07:17:43.603Z,1.04
2023-01-08T07:20:11.334Z,1.04
2023-01-08T07:22:38.368Z,1.02
2023-01-08T07:25:07.138Z,1.03
2023-01-08T07:27:34.173Z,1.05
2023-01-08T07:30:01.345Z,1.05
2023-01-08T07:32:28.352Z,1.09
2023-01-08T07:34:59.008Z,1.08
2023-01-08T07:37:26.558Z,1.08
2023-01-08T07:39:53.917Z,1.10
2023-01-08T07:42:20.965Z,1.10
2023-01-08T07:44:48.174Z,1.12
2023-01-08T07:47:15.468Z,1.12
2023-01-08T07:49:42.694Z,1.18
2023-01-08T07:52:13.358Z,1.14
2023-01-08T07:54:41.067Z,1.12
2023-01-08T07:57:08.138Z,1.15
2023-01-08T07:59:35.394Z,1.19
2023-01-08T08:02:03.409Z,1.18
2023-01-08T08:04:30.799Z,1.19
2023-01-08T08:06:57.769Z,1.21
2023-01-08T08:09:25.228Z,1.23
2023-01-08T08:11:52.273Z,1.28
2023-01-08T08:14:19.508Z,1.33
2023-01-08T08:16:46.492Z,1.36
2023-01-08T08:19:15.656Z,1.36
2023-01-08T08:21:42.763Z,1.39
2023-01-08T08:24:10.223Z,1.41
2023-01-08T08:26:37.310Z,1.42
2023-01-08T08:29:04.492Z,1.43
2023-01-08T08:31:31.495Z,1.44
2023-01-08T08:33:58.711Z,1.44
2023-01-08T08:36:30.497Z,1.45
2023-01-08T08:38:57.793Z,1.49
2023-01-08T08:41:24.861Z,1.51
2023-01-08T08:43:52.012Z,1.56
2023-01-08T08:46:19.273Z,1.60
2023-01-08T08:48:46.958Z,1.62
2023-01-08T08:51:15.149Z,1.65
2023-01-08T08:53:42.778Z,1.68
2023-01-08T08:56:09.750Z,1.70
2023-01-08T08:58:37.056Z,1.72
2023-01-08T09:01:06.280Z,1.79
2023-01-08T09:03:34.171Z,1.80
2023-01-08T09:06:01.356Z,1.78
2023-01-08T09:08:28.637Z,1.83
2023-01-08T09:10:55.699Z,1.89
2023-01-08T09:13:23.020Z,1.93
2023-01-08T09:15:50.072Z,1.95
2023-01-08T09:18:17.462Z,1.98
2023-01-08T09:20:44.435Z,2.02
2023-01-08T09:23:11.951Z,2.03
2023-01-08T09:25:39.164Z,2.06
2023-01-08T09:28:11.993Z,2.09
2023-01-08T09:30:40.430Z,2.08
2023-01-08T09:33:07.927Z,2.09
2023-01-08T09:35:35.101Z,2.12
2023-01-08T09:38:03.197Z,2.15
2023-01-08T09:40:42.981Z,2.20
2023-01-08T09:43:19.950Z,2.23
2023-01-08T09:45:55.406Z,2.27
2023-01-08T09:48:29.537Z,2.26
2023-01-08T09:50:57.951Z,2.27
2023-01-08T09:53:26.015Z,2.29
2023-01-08T09:56:10.298Z,2.29
2023-01-08T09:58:51.024Z,2.31
2023-01-08T10:01:27.153Z,2.34
2023-01-08T10:04:19.380Z,2.34
2023-01-08T10:07:21.253Z,2.35
2023-01-08T10:09:50.195Z,2.39
2023-01-08T10:12:27.380Z,2.44
2023-01-08T10:15:01.727Z,2.47
2023-01-08T10:17:41.962Z,2.65
2023-01-08T10:20:25.654Z,3.12
2023-01-08T10:22:54.309Z,3.26
2023-01-08T10:25:25.920Z,3.52
2023-01-08T10:28:02.975Z,3.51
2023-01-08T10:30:37.891Z,3.37
2023-01-08T10:33:19.550Z,3.36
2023-01-08T10:35:57.691Z,3.34
2023-01-08T10:38:35.572Z,3.46
2023-01-08T10:41:10.648Z,3.50
2023-01-08T10:43:55.100Z,3.52
2023-01-08T10:46:24.915Z,3.40
2023-01-08T10:48:57.424Z,3.45
2023-01-08T10:51:31.387Z,3.36
2023-01-08T10:54:23.491Z,3.41
2023-01-08T10:56:50.711Z,3.37
2023-01-08T10:59:23.819Z,3.39
2023-01-08T11:01:56.349Z,3.42
2023-01-08T11:04:36.187Z,3.48
2023-01-08T11:07:07.323Z,3.50
2023-01-08T11:09:48.605Z,3.53
2023-01-08T11:12:33.051Z,3.53
2023-01-08T11:15:00.782Z,3.58
2023-01-08T11:17:34.588Z,3.69
2023-01-08T11:20:30.695Z,3.75
2023-01-08T11:23:27.839Z,3.82
2023-01-08T11:26:14.223Z,3.80
2023-01-08T11:29:04.465Z,3.86
2023-01-08T11:32:10.665Z,3.72
2023-01-08T11:35:03.412Z,3.78
2023-01-08T11:37:45.833Z,3.92
2023-01-08T11:40:44.411Z,4.03
2023-01-08T11:43:54.481Z,4.00
2023-01-08T11:46:46.166Z,3.96
2023-01-08T11:50:03.697Z,3.98
2023-01-08T11:53:32.128Z,4.26
2023-01-08T11:56:20.569Z,4.33
2023-01-08T11:59:08.801Z,4.44
2023-01-08T12:01:53.406Z,4.64
2023-01-08T12:04:20.673Z,4.61
2023-01-08T12:07:05.797Z,4.71
2023-01-08T12:10:16.841Z,4.69
2023-01-08T12:13:08.265Z,4.64
2023-01-08T12:16:09.039Z,4.72
2023-01-08T12:19:00.485Z,4.81
2023-01-08T12:21:37.491Z,4.89
2023-01-08T12:24:51.890Z,5.01
2023-01-08T12:27:58.354Z,5.10
2023-01-08T12:30:49.899Z,5.17
2023-01-08T12:33:39.372Z,5.28
2023-01-08T12:36:14.384Z,5.42
2023-01-08T12:38:45.009Z,5.57
2023-01-08T12:41:19.439Z,5.71
2023-01-08T12:43:56.269Z,5.86
2023-01-08T12:46:25.902Z,5.95
2023-01-08T12:48:56.322Z,6.03
2023-01-08T12:51:41.395Z,6.14
2023-01-08T12:54:31.839Z,6.26
2023-01-08T12:57:31.798Z,6.37
2023-01-08T13:00:17.345Z,6.38
2023-01-08T13:03:04.222Z,6.51
2023-01-08T13:05:37.756Z,6.54
2023-01-08T13:08:34.833Z,6.58
2023-01-08T13:11:03.978Z,6.54
2023-01-08T13:13:45.165Z,6.54
2023-01-08T13:16:14.246Z,6.54
2023-01-08T13:18:50.715Z,6.52
2023-01-08T13:21:18.525Z,6.66
2023-01-08T13:23:45.562Z,6.83
2023-01-08T13:26:13.307Z,7.14
2023-01-08T13:28:45.560Z,7.32
2023-01-08T13:31:22.088Z,7.43
2023-01-08T13:33:52.495Z,7.41
2023-01-08T13:36:30.386Z,7.40
2023-01-08T13:39:06.531Z,7.46
2023-01-08T13:41:59.682Z,7.56
2023-01-08T13:44:35.943Z,7.59
2023-01-08T13:47:17.427Z,7.59
2023-01-08T13:49:53.251Z,7.67
2023-01-08T13:52:40.563Z,7.69
2023-01-08T13:55:17.803Z,7.71
2023-01-08T13:57:57.548Z,7.70
2023-01-08T14:00:35.948Z,7.75
2023-01-08T14:03:29.842Z,7.80
2023-01-08T14:06:21.142Z,7.81
2023-01-08T14:08:58.900Z,7.86
2023-01-08T14:11:38.667Z,8.00
2023-01-08T14:14:11.267Z,8.04
2023-01-08T14:16:38.397Z,8.07
2023-01-08T14:19:06.120Z,8.04
2023-01-08T14:21:34.295Z,7.96
2023-01-08T14:24:01.605Z,7.83
2023-01-08T14:26:35.966Z,7.75
2023-01-08T14:29:16.684Z,7.75
2023-01-08T14:31:53.533Z,7.71
2023-01-08T14:34:25.323Z,7.69
2023-01-08T14:36:55.747Z,7.71
2023-01-08T14:39:32.340Z,7.67
2023-01-08T14:42:28.339Z,7.60
2023-01-08T14:45:05.968Z,7.54
2023-01-08T14:47:49.451Z,7.52
2023-01-08T14:50:29.733Z,7.43
2023-01-08T14:53:27.635Z,7.38
2023-01-08T14:55:57.338Z,7.32
2023-01-08T14:58:29.739Z,7.24
2023-01-08T15:01:02.511Z,7.21
2023-01-08T15:03:42.644Z,7.17
2023-01-08T15:06:11.541Z,7.10
2023-01-08T15:08:40.845Z,7.04
2023-01-08T15:11:25.887Z,6.99
2023-01-08T15:13:55.149Z,6.96
2023-01-08T15:16:42.814Z,6.89
2023-01-08T15:19:39.313Z,6.84
2023-01-08T15:22:18.568Z,6.80
2023-01-08T15:24:59.344Z,6.77
2023-01-08T15:27:28.456Z,6.73
2023-01-08T15:30:04.013Z,6.70
2023-01-08T15:32:36.508Z,6.58
2023-01-08T15:35:18.582Z,6.53
2023-01-08T15:37:45.986Z,6.51
2023-01-08T15:40:13.641Z,6.47
2023-01-08T15:42:59.711Z,6.43
2023-01-08T15:45:32.336Z,6.39
2023-01-08T15:48:00.285Z,6.34
2023-01-08T15:50:29.001Z,6.27
2023-01-08T15:52:57.381Z,6.24
2023-01-08T15:55:25.291Z,6.16
2023-01-08T15:57:52.772Z,6.04
2023-01-08T16:00:22.420Z,5.89
2023-01-08T16:02:52.874Z,5.87
2023-01-08T16:05:23.859Z,5.88
2023-01-08T16:07:51.074Z,5.80
2023-01-08T16:10:18.644Z,5.75
2023-01-08T16:12:45.958Z,5.78
2023-01-08T16:15:15.149Z,5.75
2023-01-08T16:17:44.298Z,5.76
2023-01-08T16:20:13.802Z,5.71
2023-01-08T16:22:41.658Z,5.72
2023-01-08T16:25:10.035Z,5.67
2023-01-08T16:27:38.354Z,5.64
2023-01-08T16:30:10.392Z,5.58
2023-01-08T16:32:37.723Z,5.57
2023-01-08T16:35:05.271Z,5.52
2023-01-08T16:37:32.513Z,5.47
2023-01-08T16:39:59.440Z,5.42
2023-01-08T16:42:26.853Z,5.37
2023-01-08T16:44:53.907Z,5.35
2023-01-08T16:47:21.208Z,5.33
2023-01-08T16:49:50.271Z,5.29
2023-01-08T16:52:18.063Z,5.26
2023-01-08T16:54:46.350Z,5.02
2023-01-08T16:57:14.487Z,4.88
2023-01-08T16:59:41.566Z,4.81
2023-01-08T17:02:10.532Z,4.77
2023-01-08T17:04:37.780Z,4.73
2023-01-08T17:07:05.227Z,4.71
2023-01-08T17:09:32.552Z,4.66
2023-01-08T17:11:59.814Z,4.63
2023-01-08T17:14:26.840Z,4.61
2023-01-08T17:16:54.110Z,4.57
2023-01-08T17:19:21.619Z,4.55
2023-01-08T17:21:50.608Z,4.55
2023-01-08T17:24:17.717Z,4.56
2023-01-08T17:26:45.028Z,4.53
2023-01-08T17:29:12.026Z,4.46
2023-01-08T17:31:40.111Z,4.42
2023-01-08T17:34:13.053Z,4.39
2023-01-08T17:36:40.831Z,4.39
2023-01-08T17:39:08.187Z,4.37
2023-01-08T17:41:54.631Z,4.37
2023-01-08T17:44:21.764Z,4.34
2023-01-08T17:46:49.393Z,4.31
2023-01-08T17:49:17.727Z,4.29
2023-01-08T17:51:45.906Z,4.27
2023-01-08T17:54:15.821Z,4.25
2023-01-08T17:56:44.172Z,4.25
2023-01-08T17:59:14.411Z,4.24
2023-01-08T18:01:41.921Z,4.19
2023-01-08T18:04:08.917Z,4.15
2023-01-08T18:06:36.119Z,4.13
2023-01-08T18:09:03.896Z,4.13
2023-01-08T18:11:31.273Z,4.12
2023-01-08T18:14:01.859Z,4.03
2023-01-08T18:16:31.794Z,4.01
2023-01-08T18:19:00.032Z,4.01
2023-01-08T18:21:28.468Z,3.96
2023-01-08T18:23:56.281Z,3.95
2023-01-08T18:26:23.674Z,3.99
2023-01-08T18:28:52.945Z,3.98
2023-01-08T18:31:21.898Z,3.96
2023-01-08T18:33:52.968Z,3.98
2023-01-08T18:36:21.187Z,4.00
2023-01-08T18:38:49.187Z,3.96
2023-01-08T18:41:38.809Z,4.03
2023-01-08T18:44:08.897Z,3.98
2023-01-08T18:46:37.088Z,3.95
2023-01-08T18:49:05.564Z,3.87
2023-01-08T18:51:33.010Z,3.83
2023-01-08T18:54:00.112Z,3.83
2023-01-08T18:56:32.336Z,3.93
2023-01-08T18:58:59.532Z,3.81
2023-01-08T19:01:27.834Z,3.75
2023-01-08T19:03:55.887Z,3.77
2023-01-08T19:06:23.495Z,3.79
2023-01-08T19:08:52.073Z,3.74
2023-01-08T19:11:19.595Z,3.65
2023-01-08T19:13:46.536Z,3.72
2023-01-08T19:16:18.349Z,3.75
2023-01-08T19:18:45.685Z,3.74
2023-01-08T19:21:15.021Z,3.68
2023-01-08T19:23:42.082Z,3.67
2023-01-08T19:26:10.150Z,3.67
2023-01-08T19:28:37.286Z,3.59
2023-01-08T19:31:04.876Z,3.56
2023-01-08T19:33:32.209Z,3.58
2023-01-08T19:36:12.634Z,3.58
2023-01-08T19:38:40.659Z,3.55
2023-01-08T19:41:30.169Z,3.57
2023-01-08T19:43:59.839Z,3.57
2023-01-08T19:46:27.368Z,3.49
2023-01-08T19:48:59.961Z,3.49
2023-01-08T19:51:32.078Z,3.51
2023-01-08T19:54:00.869Z,3.50
2023-01-08T19:56:29.072Z,3.50
2023-01-08T19:58:57.276Z,3.50
2023-01-08T20:01:28.091Z,3.54
2023-01-08T20:03:56.651Z,3.53
2023-01-08T20:06:26.305Z,3.47
2023-01-08T20:08:59.694Z,3.45
2023-01-08T20:11:29.118Z,3.47
2023-01-08T20:14:02.722Z,3.51
2023-01-08T20:16:30.702Z,3.54
2023-01-08T20:19:04.724Z,3.54
2023-01-08T20:21:34.410Z,3.54
2023-01-08T20:24:09.258Z,3.52
2023-01-08T20:26:38.166Z,3.51
2023-01-08T20:29:06.386Z,3.51
2023-01-08T20:31:35.009Z,3.49
2023-01-08T20:34:11.977Z,3.45
2023-01-08T20:36:43.091Z,3.38
2023-01-08T20:39:15.131Z,3.36
2023-01-08T20:41:50.282Z,3.39
2023-01-08T20:44:31.948Z,3.37
2023-01-08T20:47:00.781Z,3.30
2023-01-08T20:49:30.386Z,3.30
2023-01-08T20:51:59.545Z,3.33
2023-01-08T20:54:29.128Z,3.35
2023-01-08T20:56:58.692Z,3.34
2023-01-08T20:59:26.918Z,3.34
2023-01-08T21:01:54.575Z,3.34
2023-01-08T21:04:21.834Z,3.36
2023-01-08T21:06:49.132Z,3.37
2023-01-08T21:09:17.804Z,3.36
2023-01-08T21:11:45.220Z,3.37
2023-01-08T21:14:12.263Z,3.39
2023-01-08T21:16:40.547Z,3.38
2023-01-08T21:19:10.099Z,3.32
2023-01-08T21:21:40.683Z,3.36
2023-01-08T21:24:11.227Z,3.38
2023-01-08T21:26:39.414Z,3.39
2023-01-08T21:29:08.803Z,3.40
2023-01-08T21:31:37.335Z,3.39
2023-01-08T21:34:06.269Z,3.39
2023-01-08T21:36:33.514Z,3.35
2023-01-08T21:39:02.415Z,3.37
2023-01-08T21:41:49.376Z,3.37
2023-01-08T21:44:42.088Z,3.39
2023-01-08T21:47:12.702Z,3.39
2023-01-08T21:49:40.498Z,3.37
2023-01-08T21:52:27.198Z,3.40
2023-01-08T21:54:54.191Z,3.37
2023-01-08T21:57:21.587Z,3.37
2023-01-08T21:59:50.707Z,3.36
2023-01-08T22:02:21.531Z,3.33
2023-01-08T22:04:49.030Z,3.36
2023-01-08T22:07:16.948Z,3.36
2023-01-08T22:09:43.972Z,3.35
2023-01-08T22:12:11.708Z,3.40
2023-01-08T22:14:38.671Z,3.42
2023-01-08T22:17:08.584Z,3.40
2023-01-08T22:19:38.847Z,3.42
2023-01-08T22:22:09.521Z,3.42
2023-01-08T22:24:38.070Z,3.44
2023-01-08T22:27:05.546Z,3.44
2023-01-08T22:29:32.523Z,3.41
2023-01-08T22:31:59.968Z,3.44
2023-01-08T22:34:32.149Z,3.42
2023-01-08T22:36:59.547Z,3.39
2023-01-08T22:39:26.898Z,3.41
2023-01-08T22:41:54.209Z,3.43
2023-01-08T22:44:21.169Z,3.43
2023-01-08T22:46:48.541Z,3.45
2023-01-08T22:49:15.701Z,3.49
2023-01-08T22:51:43.659Z,3.48
2023-01-08T22:54:13.585Z,3.49
2023-01-08T22:56:41.141Z,3.46
2023-01-08T22:59:08.163Z,3.44
2023-01-08T23:01:35.770Z,3.43
2023-01-08T23:04:02.901Z,3.44
2023-01-08T23:06:31.843Z,3.43
2023-01-08T23:08:59.733Z,3.40
2023-01-08T23:11:27.281Z,3.42
2023-01-08T23:13:55.057Z,3.43
2023-01-08T23:16:25.372Z,3.44
2023-01-08T23:18:54.717Z,3.43
2023-01-08T23:21:24.839Z,3.42
2023-01-08T23:23:52.264Z,3.43
2023-01-08T23:26:27.498Z,3.46
2023-01-08T23:28:56.407Z,3.45
2023-01-08T23:31:28.442Z,3.50
2023-01-08T23:33:55.983Z,3.53
2023-01-08T23:36:24.463Z,3.54
2023-01-08T23:38:54.785Z,3.52
2023-01-08T23:41:31.999Z,3.51
2023-01-08T23:44:11.860Z,3.55
2023-01-08T23:46:39.287Z,3.55
2023-01-08T23:49:07.191Z,3.53
2023-01-08T23:51:34.533Z,3.53
2023-01-08T23:54:01.563Z,3.50
2023-01-08T23:56:29.014Z,3.52
2023-01-08T23:58:57.775Z,3.51
